Terminal Aerodrome Forecast
Issued by NWS Bismarck, ND

Home | Current Version | Previous Version | Graphics & Text | Print | Product List | Glossary On
Versions: 1 2 3 4 5 6 7 8 9 10 11 12 13 14 15 16 17 18 19 20 21 22 23 24 25 26 27 28 29
000
FTUS43 KBIS 290854 AAC
TAFBIS
TAF AMD
KBIS 290854Z 2909/3006 VRB03KT 5SM BR FEW200
     FM291000 VRB03KT 2SM BR SCT005
      TEMPO 2910/2913 1/2SM FG OVC005
     FM291400 29005KT P6SM FEW150
     FM300200 00000KT P6SM FEW200=

USA.gov is the U.S. government's official web portal to all federal, state and local government web resources and services.